createdAt,value
2022-09-15T00:01:10.815Z,21.05
2022-09-15T00:03:38.851Z,22.67
2022-09-15T00:06:06.675Z,17.67
2022-09-15T00:08:34.206Z,20.00
2022-09-15T00:11:06.282Z,19.95
2022-09-15T00:13:35.020Z,19.02
2022-09-15T00:16:03.239Z,21.80
2022-09-15T00:18:30.929Z,21.05
2022-09-15T00:20:58.263Z,27.05
2022-09-15T00:23:25.544Z,23.75
2022-09-15T00:25:53.612Z,18.60
2022-09-15T00:28:22.160Z,20.55
2022-09-15T00:30:52.626Z,24.05
2022-09-15T00:33:21.864Z,17.55
2022-09-15T00:35:51.135Z,20.30
2022-09-15T00:38:19.449Z,17.90
2022-09-15T00:40:50.126Z,22.00
2022-09-15T00:43:38.953Z,20.00
2022-09-15T00:46:06.242Z,18.58
2022-09-15T00:48:35.336Z,19.50
2022-09-15T00:51:04.581Z,25.38
2022-09-15T00:53:32.985Z,23.02
2022-09-15T00:56:03.147Z,22.70
2022-09-15T00:58:40.017Z,22.40
2022-09-15T01:01:08.774Z,22.95
2022-09-15T01:03:36.824Z,25.60
2022-09-15T01:06:23.972Z,22.38
2022-09-15T01:09:07.935Z,19.98
2022-09-15T01:11:35.519Z,21.40
2022-09-15T01:14:02.969Z,23.02
2022-09-15T01:16:53.501Z,22.70
2022-09-15T01:19:32.292Z,19.67
2022-09-15T01:22:20.058Z,21.20
2022-09-15T01:25:09.448Z,24.10
2022-09-15T01:28:01.872Z,19.30
2022-09-15T01:30:35.894Z,20.85
2022-09-15T01:33:06.451Z,23.08
2022-09-15T01:35:39.562Z,25.05
2022-09-15T01:38:44.893Z,23.10
2022-09-15T01:41:19.065Z,20.60
2022-09-15T01:43:55.745Z,27.30
2022-09-15T01:46:25.466Z,24.15
2022-09-15T01:48:54.774Z,21.08
2022-09-15T01:51:25.568Z,20.85
2022-09-15T01:53:54.861Z,25.48
2022-09-15T01:56:22.138Z,25.75
2022-09-15T01:58:51.233Z,20.85
2022-09-15T02:01:28.254Z,22.20
2022-09-15T02:04:05.355Z,27.42
2022-09-15T02:06:46.805Z,26.83
2022-09-15T02:09:20.665Z,21.00
2022-09-15T02:12:03.020Z,22.85
2022-09-15T02:15:03.258Z,21.58
2022-09-15T02:17:32.686Z,23.40
2022-09-15T02:20:33.062Z,21.55
2022-09-15T02:23:08.149Z,23.60
2022-09-15T02:25:41.779Z,20.27
2022-09-15T02:28:11.696Z,19.13
2022-09-15T02:30:41.901Z,21.42
2022-09-15T02:33:14.233Z,21.15
2022-09-15T02:35:42.199Z,21.48
2022-09-15T02:38:10.542Z,20.90
2022-09-15T02:40:42.309Z,22.67
2022-09-15T02:43:12.985Z,19.90
2022-09-15T02:45:40.488Z,17.65
2022-09-15T02:48:11.714Z,20.05
2022-09-15T02:50:39.550Z,18.23
2022-09-15T02:53:07.537Z,23.02
2022-09-15T02:55:35.024Z,21.83
2022-09-15T02:58:02.275Z,18.80
2022-09-15T03:00:30.901Z,21.38
2022-09-15T03:02:58.319Z,19.60
2022-09-15T03:05:30.182Z,18.83
2022-09-15T03:07:57.521Z,20.80
2022-09-15T03:10:25.525Z,23.75
2022-09-15T03:12:54.534Z,19.52
2022-09-15T03:15:24.339Z,20.73
2022-09-15T03:17:52.685Z,20.55
2022-09-15T03:20:22.967Z,18.67
2022-09-15T03:22:53.087Z,22.10
2022-09-15T03:25:20.733Z,20.52
2022-09-15T03:27:48.023Z,21.17
2022-09-15T03:30:15.734Z,23.60
2022-09-15T03:32:42.967Z,22.23
2022-09-15T03:35:10.411Z,22.50
2022-09-15T03:37:37.622Z,21.73
2022-09-15T03:40:05.477Z,23.98
2022-09-15T03:42:32.788Z,23.40
2022-09-15T03:45:00.117Z,23.08
2022-09-15T03:47:27.315Z,21.35
2022-09-15T03:49:55.249Z,20.02
2022-09-15T03:52:22.511Z,16.63
2022-09-15T03:54:50.213Z,21.52
2022-09-15T03:57:17.475Z,20.85
2022-09-15T03:59:44.704Z,21.45
2022-09-15T04:02:12.017Z,21.92
2022-09-15T04:04:39.280Z,25.45
2022-09-15T04:07:06.511Z,22.48
2022-09-15T04:09:33.739Z,18.13
2022-09-15T04:12:01.205Z,22.13
2022-09-15T04:14:28.447Z,18.80
2022-09-15T04:16:55.810Z,22.58
2022-09-15T04:19:22.975Z,20.65
2022-09-15T04:21:50.177Z,24.45
2022-09-15T04:24:17.477Z,21.95
2022-09-15T04:26:45.184Z,24.42
2022-09-15T04:29:14.905Z,20.58
2022-09-15T04:31:42.502Z,24.13
2022-09-15T04:34:10.144Z,19.90
2022-09-15T04:36:37.479Z,25.63
2022-09-15T04:39:06.592Z,23.05
2022-09-15T04:41:33.964Z,23.85
2022-09-15T04:44:01.350Z,22.40
2022-09-15T04:46:28.678Z,21.55
2022-09-15T04:48:56.794Z,22.10
2022-09-15T04:51:24.911Z,20.90
2022-09-15T04:53:52.332Z,27.02
2022-09-15T04:56:21.943Z,19.50
2022-09-15T04:58:52.287Z,22.58
2022-09-15T05:01:22.302Z,22.58
2022-09-15T05:03:49.874Z,24.35
2022-09-15T05:06:19.371Z,17.15
2022-09-15T05:08:51.740Z,24.23
2022-09-15T05:11:19.687Z,23.15
2022-09-15T05:13:47.914Z,28.70
2022-09-15T05:16:17.413Z,20.58
2022-09-15T05:18:45.679Z,24.77
2022-09-15T05:21:14.893Z,24.15
2022-09-15T05:23:42.437Z,21.13
2022-09-15T05:26:13.093Z,24.08
2022-09-15T05:28:41.039Z,23.95
2022-09-15T05:31:20.219Z,21.27
2022-09-15T05:33:49.201Z,18.63
2022-09-15T05:36:18.511Z,21.52
2022-09-15T05:38:45.718Z,20.20
2022-09-15T05:41:17.915Z,21.67
2022-09-15T05:43:46.740Z,22.20
2022-09-15T05:46:14.989Z,22.20
2022-09-15T05:48:42.891Z,20.40
2022-09-15T05:51:10.181Z,20.48
2022-09-15T05:53:38.332Z,21.88
2022-09-15T05:56:10.213Z,22.73
2022-09-15T05:58:43.435Z,21.77
2022-09-15T06:01:24.916Z,20.20
2022-09-15T06:03:53.337Z,18.98
2022-09-15T06:06:22.032Z,21.85
2022-09-15T06:08:57.429Z,19.50
2022-09-15T06:11:28.131Z,18.95
2022-09-15T06:13:55.763Z,20.75
2022-09-15T06:16:24.171Z,27.67
2022-09-15T06:18:53.303Z,19.45
2022-09-15T06:21:22.788Z,20.00
2022-09-15T06:23:58.798Z,20.77
2022-09-15T06:26:27.215Z,23.70
2022-09-15T06:28:56.875Z,20.10
2022-09-15T06:31:25.643Z,16.25
2022-09-15T06:33:57.490Z,23.40
2022-09-15T06:36:28.458Z,16.45
2022-09-15T06:38:56.440Z,18.88
2022-09-15T06:41:24.067Z,17.27
2022-09-15T06:43:52.041Z,20.50
2022-09-15T06:46:25.488Z,18.63
2022-09-15T06:48:53.563Z,18.45
2022-09-15T06:51:28.268Z,18.17
2022-09-15T06:53:55.549Z,19.90
2022-09-15T06:56:23.639Z,16.77
2022-09-15T06:58:51.462Z,17.10
2022-09-15T07:01:28.505Z,19.48
2022-09-15T07:03:57.117Z,19.52
2022-09-15T07:06:27.275Z,22.90
2022-09-15T07:08:54.495Z,16.80
2022-09-15T07:11:21.764Z,17.13
2022-09-15T07:13:49.188Z,21.88
2022-09-15T07:16:18.129Z,17.38
2022-09-15T07:18:46.575Z,16.92
2022-09-15T07:21:20.867Z,17.80
2022-09-15T07:23:48.946Z,16.15
2022-09-15T07:26:22.686Z,19.05
2022-09-15T07:28:52.436Z,23.35
2022-09-15T07:31:22.258Z,16.75
2022-09-15T07:33:49.546Z,19.45
2022-09-15T07:36:17.443Z,17.50
2022-09-15T07:38:47.851Z,18.02
2022-09-15T07:41:20.403Z,17.35
2022-09-15T07:43:52.568Z,20.95
2022-09-15T07:46:22.222Z,18.65
2022-09-15T07:48:56.383Z,16.48
2022-09-15T07:51:24.439Z,16.40
2022-09-15T07:53:52.525Z,18.38
2022-09-15T07:56:20.414Z,17.13
2022-09-15T07:58:48.822Z,19.42
2022-09-15T08:01:17.557Z,19.80
2022-09-15T08:03:48.717Z,15.88
2022-09-15T08:06:19.732Z,19.77
2022-09-15T08:08:47.350Z,15.40
2022-09-15T08:11:19.022Z,12.32
2022-09-15T08:13:49.280Z,16.65
2022-09-15T08:16:23.255Z,15.38
2022-09-15T08:18:55.160Z,13.77
2022-09-15T08:21:23.533Z,14.43
2022-09-15T08:23:56.455Z,14.73
2022-09-15T08:26:24.852Z,20.80
2022-09-15T08:28:52.283Z,11.15
2022-09-15T08:31:19.963Z,17.13
2022-09-15T08:33:52.591Z,13.45
2022-09-15T08:36:20.207Z,13.35
2022-09-15T08:38:48.144Z,18.65
2022-09-15T08:41:45.159Z,16.33
2022-09-15T08:44:30.654Z,13.13
2022-09-15T08:47:10.315Z,14.27
2022-09-15T08:49:51.571Z,15.68
2022-09-15T08:52:25.622Z,14.93
2022-09-15T08:54:55.914Z,12.23
2022-09-15T08:57:25.858Z,13.30
2022-09-15T08:59:54.889Z,14.88
2022-09-15T09:02:46.306Z,13.25
2022-09-15T09:05:37.282Z,18.00
2022-09-15T09:08:42.865Z,14.90
2022-09-15T09:11:44.736Z,15.70
2022-09-15T09:14:17.846Z,13.77
2022-09-15T09:17:10.138Z,12.18
2022-09-15T09:19:47.411Z,13.68
2022-09-15T09:22:20.540Z,12.27
2022-09-15T09:24:51.521Z,11.40
2022-09-15T09:27:23.428Z,12.80
2022-09-15T09:30:16.508Z,10.25
2022-09-15T09:33:04.894Z,9.75
2022-09-15T09:35:51.676Z,7.55
2022-09-15T09:38:36.430Z,15.75
2022-09-15T09:41:22.228Z,12.18
2022-09-15T09:43:50.026Z,8.23
2022-09-15T09:46:18.863Z,8.48
2022-09-15T09:49:23.137Z,7.15
2022-09-15T09:51:52.080Z,7.53
2022-09-15T09:54:21.854Z,9.25
2022-09-15T09:56:50.629Z,6.18
2022-09-15T09:59:46.284Z,7.53
2022-09-15T10:02:19.505Z,7.05
2022-09-15T10:04:53.412Z,5.70
2022-09-15T10:07:25.591Z,6.28
2022-09-15T10:09:56.059Z,4.25
2022-09-15T10:12:28.251Z,5.18
2022-09-15T10:14:59.436Z,6.25
2022-09-15T10:17:47.749Z,5.07
2022-09-15T10:20:28.248Z,4.38
2022-09-15T10:23:27.010Z,6.95
2022-09-15T10:25:59.972Z,3.70
2022-09-15T10:28:28.050Z,5.80
2022-09-15T10:31:13.372Z,2.67
2022-09-15T10:33:44.769Z,6.28
2022-09-15T10:36:23.567Z,8.07
2022-09-15T10:39:19.844Z,5.20
2022-09-15T10:42:04.404Z,7.20
2022-09-15T10:44:50.280Z,10.43
2022-09-15T10:47:26.563Z,9.30
2022-09-15T10:50:23.560Z,6.90
2022-09-15T10:53:21.320Z,3.72
2022-09-15T10:56:12.771Z,4.97
2022-09-15T10:58:52.285Z,6.72
2022-09-15T11:01:28.685Z,5.88
2022-09-15T11:04:29.246Z,3.53
2022-09-15T11:07:19.707Z,4.45
2022-09-15T11:10:10.240Z,6.97
2022-09-15T11:12:56.427Z,4.13
2022-09-15T11:15:23.591Z,5.10
2022-09-15T11:18:09.456Z,6.88
2022-09-15T11:20:58.363Z,5.68
2022-09-15T11:23:32.426Z,3.67
2022-09-15T11:26:07.338Z,4.03
2022-09-15T11:28:57.947Z,4.55
2022-09-15T11:31:34.267Z,8.05
2022-09-15T11:34:13.365Z,5.28
2022-09-15T11:36:49.216Z,3.50
2022-09-15T11:39:24.124Z,7.30
2022-09-15T11:42:13.206Z,4.85
2022-09-15T11:44:43.383Z,3.17
2022-09-15T11:47:34.057Z,4.30
2022-09-15T11:50:03.967Z,7.13
2022-09-15T11:53:00.408Z,5.40
2022-09-15T11:55:47.551Z,6.05
2022-09-15T11:58:29.986Z,4.20
2022-09-15T12:01:08.866Z,4.07
2022-09-15T12:03:37.731Z,3.15
2022-09-15T12:06:15.920Z,7.43
2022-09-15T12:08:50.220Z,3.75
2022-09-15T12:11:24.520Z,4.07
2022-09-15T12:13:53.583Z,5.35
2022-09-15T12:16:21.562Z,3.90
2022-09-15T12:18:51.067Z,4.00
2022-09-15T12:21:30.408Z,4.05
2022-09-15T12:24:07.755Z,9.50
2022-09-15T12:26:35.632Z,8.10
2022-09-15T12:29:24.378Z,6.72
2022-09-15T12:32:16.904Z,5.63
2022-09-15T12:35:15.670Z,7.43
2022-09-15T12:37:46.103Z,7.63
2022-09-15T12:40:38.029Z,4.90
2022-09-15T12:43:11.484Z,4.65
2022-09-15T12:45:41.648Z,2.20
2022-09-15T12:48:36.427Z,2.25
2022-09-15T12:51:06.398Z,3.42
2022-09-15T12:54:00.630Z,2.80
2022-09-15T12:56:31.150Z,2.28
2022-09-15T12:59:07.074Z,6.97
2022-09-15T13:01:50.654Z,5.38
2022-09-15T13:04:46.279Z,6.10
2022-09-15T13:07:16.676Z,9.70
2022-09-15T13:10:17.393Z,3.38
2022-09-15T13:12:53.521Z,7.57
2022-09-15T13:15:24.441Z,2.35
2022-09-15T13:17:52.508Z,3.05
2022-09-15T13:20:25.905Z,3.13
2022-09-15T13:22:56.422Z,3.38
2022-09-15T13:25:30.257Z,3.90
2022-09-15T13:28:02.432Z,4.60
2022-09-15T13:31:07.490Z,5.68
2022-09-15T13:40:34.035Z,4.05
2022-09-15T13:43:21.340Z,4.13
2022-09-15T13:46:06.916Z,3.75
2022-09-15T13:48:55.863Z,8.48
2022-09-15T13:51:26.288Z,5.93
2022-09-15T13:54:01.980Z,5.13
2022-09-15T13:56:41.424Z,2.35
2022-09-15T13:59:18.401Z,3.45
2022-09-15T14:01:46.256Z,3.00
2022-09-15T14:04:24.383Z,4.10
2022-09-15T14:06:58.508Z,2.83
2022-09-15T14:09:33.221Z,3.10
2022-09-15T14:12:04.871Z,2.05
2022-09-15T14:14:34.977Z,3.63
2022-09-15T14:17:02.660Z,2.33
2022-09-15T14:19:35.869Z,2.92
2022-09-15T14:22:33.286Z,3.22
2022-09-15T14:25:06.779Z,4.97
2022-09-15T14:27:36.499Z,1.92
2022-09-15T14:30:09.539Z,3.45
2022-09-15T14:32:44.997Z,3.88
2022-09-15T14:35:19.728Z,5.43
2022-09-15T14:37:56.594Z,5.50
2022-09-15T14:40:34.360Z,3.38
2022-09-15T14:43:02.987Z,3.00
2022-09-15T14:48:30.692Z,4.03
2022-09-15T14:51:02.763Z,3.55
2022-09-15T14:53:36.212Z,7.07
2022-09-15T14:56:11.559Z,4.88
2022-09-15T14:58:42.651Z,3.95
2022-09-15T15:01:28.897Z,1.48
2022-09-15T15:04:26.532Z,2.83
2022-09-15T15:06:56.599Z,2.65
2022-09-15T15:09:44.649Z,2.25
2022-09-15T15:12:19.166Z,2.83
2022-09-15T15:14:46.700Z,2.72
2022-09-15T15:17:26.630Z,3.78
2022-09-15T15:20:06.008Z,4.53
2022-09-15T15:22:33.654Z,2.08
2022-09-15T15:25:00.981Z,2.75
2022-09-15T15:27:34.460Z,2.97
2022-09-15T15:30:29.595Z,2.60
2022-09-15T15:32:58.158Z,5.90
2022-09-15T15:35:26.032Z,2.60
2022-09-15T15:38:25.254Z,5.03
2022-09-15T15:41:04.752Z,2.70
2022-09-15T15:43:32.295Z,4.85
2022-09-15T15:46:03.796Z,2.63
2022-09-15T15:48:37.356Z,4.63
2022-09-15T15:51:06.611Z,5.05
2022-09-15T15:53:34.407Z,2.78
2022-09-15T15:56:01.901Z,4.25
2022-09-15T15:58:29.157Z,2.30
2022-09-15T16:00:57.168Z,3.53
2022-09-15T16:03:25.147Z,2.78
2022-09-15T16:05:58.809Z,4.00
2022-09-15T16:08:38.074Z,2.95
2022-09-15T16:11:08.150Z,4.00
2022-09-15T16:13:35.765Z,2.00
2022-09-15T16:16:34.826Z,4.35
2022-09-15T16:19:02.077Z,1.10
2022-09-15T16:21:36.986Z,1.60
2022-09-15T16:24:05.926Z,2.85
2022-09-15T16:26:35.553Z,1.75
2022-09-15T16:29:03.028Z,4.82
2022-09-15T16:31:31.126Z,5.05
2022-09-15T16:33:58.781Z,6.00
2022-09-15T16:36:26.186Z,5.75
2022-09-15T16:38:53.789Z,3.97
2022-09-15T16:41:23.586Z,6.43
2022-09-15T16:43:51.137Z,4.40
2022-09-15T16:46:18.924Z,6.80
2022-09-15T16:48:48.878Z,2.85
2022-09-15T16:51:34.493Z,4.00
2022-09-15T16:54:01.693Z,6.57
2022-09-15T16:56:28.932Z,4.93
2022-09-15T16:59:00.066Z,7.07
2022-09-15T17:01:28.065Z,7.70
2022-09-15T17:03:55.801Z,5.85
2022-09-15T17:06:23.487Z,3.95
2022-09-15T17:08:50.854Z,6.15
2022-09-15T17:11:19.946Z,4.82
2022-09-15T17:13:47.403Z,5.85
2022-09-15T17:16:19.242Z,5.65
2022-09-15T17:18:46.972Z,5.22
2022-09-15T17:21:16.283Z,5.82
2022-09-15T17:23:45.361Z,5.78
2022-09-15T17:26:19.982Z,6.95
2022-09-15T17:28:47.425Z,3.60
2022-09-15T17:31:20.823Z,3.53
2022-09-15T17:33:49.702Z,2.65
2022-09-15T17:36:17.763Z,8.30
2022-09-15T17:38:45.476Z,2.88
2022-09-15T17:41:20.442Z,2.03
2022-09-15T17:43:47.998Z,7.35
2022-09-15T17:46:15.367Z,2.20
2022-09-15T17:48:42.733Z,4.38
2022-09-15T17:51:14.986Z,2.53
2022-09-15T17:53:43.195Z,5.30
2022-09-15T17:56:17.344Z,5.25
2022-09-15T17:58:44.707Z,3.30
2022-09-15T18:01:13.399Z,2.10
2022-09-15T18:03:43.506Z,3.08
2022-09-15T18:06:11.069Z,3.50
2022-09-15T18:08:38.383Z,6.47
2022-09-15T18:11:07.111Z,3.60
2022-09-15T18:13:34.387Z,5.93
2022-09-15T18:16:12.707Z,2.55
2022-09-15T18:18:40.909Z,2.42
2022-09-15T18:21:11.730Z,3.53
2022-09-15T18:23:42.241Z,5.75
2022-09-15T18:26:09.502Z,4.10
2022-09-15T18:28:36.699Z,4.30
2022-09-15T18:31:03.951Z,3.25
2022-09-15T18:33:31.144Z,4.68
2022-09-15T18:35:58.920Z,3.67
2022-09-15T18:38:26.883Z,10.07
2022-09-15T18:40:56.233Z,1.58
2022-09-15T18:43:26.281Z,2.75
2022-09-15T18:46:00.551Z,5.57
2022-09-15T18:48:28.273Z,6.43
2022-09-15T18:50:55.996Z,4.45
2022-09-15T18:53:24.536Z,2.50
2022-09-15T18:55:51.831Z,3.65
2022-09-15T18:58:19.383Z,5.47
2022-09-15T19:00:46.700Z,5.47
2022-09-15T19:03:14.118Z,2.15
2022-09-15T19:05:41.707Z,4.20
2022-09-15T19:08:09.127Z,3.17
2022-09-15T19:10:38.278Z,5.00
2022-09-15T19:13:05.986Z,4.32
2022-09-15T19:15:34.547Z,2.17
2022-09-15T19:18:02.295Z,5.53
2022-09-15T19:20:30.093Z,3.40
2022-09-15T19:22:58.142Z,4.35
2022-09-15T19:25:25.536Z,3.85
2022-09-15T19:27:52.746Z,5.93
2022-09-15T19:30:20.363Z,3.88
2022-09-15T19:32:47.539Z,3.63
2022-09-15T19:35:14.775Z,2.83
2022-09-15T19:37:42.826Z,3.88
2022-09-15T19:40:12.768Z,3.35
2022-09-15T19:42:41.414Z,2.72
2022-09-15T19:45:10.424Z,4.13
2022-09-15T19:47:38.546Z,5.43
2022-09-15T19:50:08.112Z,6.10
2022-09-15T19:52:35.535Z,5.07
2022-09-15T19:55:04.341Z,2.30
2022-09-15T19:57:31.640Z,5.15
2022-09-15T19:59:58.926Z,5.68
2022-09-15T20:02:27.276Z,4.05
2022-09-15T20:04:55.028Z,4.20
2022-09-15T20:07:22.541Z,3.95
2022-09-15T20:09:52.828Z,4.60
2022-09-15T20:14:49.069Z,2.70
2022-09-15T20:17:16.366Z,2.90
2022-09-15T20:19:44.766Z,3.35
2022-09-15T20:22:12.049Z,3.90
2022-09-15T20:24:40.051Z,3.58
2022-09-15T20:27:10.463Z,5.40
2022-09-15T20:29:38.830Z,7.55
2022-09-15T20:32:06.295Z,2.10
2022-09-15T20:34:33.543Z,11.88
2022-09-15T20:37:00.804Z,4.97
2022-09-15T20:39:28.930Z,3.95
2022-09-15T20:41:57.637Z,4.95
2022-09-15T20:44:24.918Z,4.35
2022-09-15T20:46:52.282Z,6.40
2022-09-15T20:49:19.580Z,6.55
2022-09-15T20:51:46.877Z,2.15
2022-09-15T20:54:14.709Z,4.68
2022-09-15T20:56:41.935Z,3.70
2022-09-15T20:59:13.040Z,4.53
2022-09-15T21:01:40.501Z,3.95
2022-09-15T21:04:09.298Z,2.38
2022-09-15T21:06:36.870Z,3.20
2022-09-15T21:09:04.962Z,3.50
2022-09-15T21:11:32.388Z,5.65
2022-09-15T21:13:59.728Z,3.20
2022-09-15T21:16:29.204Z,3.20
2022-09-15T21:18:57.678Z,4.82
2022-09-15T21:21:27.476Z,3.80
2022-09-15T21:23:56.642Z,3.30
2022-09-15T21:26:26.282Z,4.78
2022-09-15T21:28:54.647Z,5.70
2022-09-15T21:31:26.114Z,3.75
2022-09-15T21:33:55.527Z,2.92
2022-09-15T21:36:32.180Z,4.65
2022-09-15T21:38:59.753Z,2.65
2022-09-15T21:41:29.790Z,3.38
2022-09-15T21:43:58.351Z,3.92
2022-09-15T21:46:28.305Z,6.35
2022-09-15T21:48:57.638Z,5.80
2022-09-15T21:51:26.701Z,4.00
2022-09-15T21:53:56.094Z,4.13
2022-09-15T21:56:24.988Z,2.47
2022-09-15T21:58:52.169Z,4.40
2022-09-15T22:01:27.988Z,5.13
2022-09-15T22:04:04.324Z,3.25
2022-09-15T22:06:34.245Z,5.32
2022-09-15T22:09:04.083Z,3.55
2022-09-15T22:11:31.820Z,3.42
2022-09-15T22:13:59.103Z,9.38
2022-09-15T22:16:26.571Z,2.38
2022-09-15T22:18:54.469Z,3.85
2022-09-15T22:21:24.688Z,4.80
2022-09-15T22:23:54.657Z,5.53
2022-09-15T22:26:28.181Z,4.47
2022-09-15T22:28:55.846Z,8.57
2022-09-15T22:31:24.180Z,4.40
2022-09-15T22:33:51.807Z,7.15
2022-09-15T22:36:29.746Z,3.10
2022-09-15T22:39:05.250Z,4.53
2022-09-15T22:41:37.967Z,5.85
2022-09-15T22:44:06.806Z,4.25
2022-09-15T22:46:34.343Z,3.97
2022-09-15T22:49:01.835Z,6.13
2022-09-15T22:51:29.215Z,2.90
2022-09-15T22:53:57.346Z,3.33
2022-09-15T22:56:26.161Z,5.43
2022-09-15T22:58:54.557Z,1.83
2022-09-15T23:01:28.001Z,6.38
2022-09-15T23:04:01.355Z,5.45
2022-09-15T23:06:31.901Z,8.77
2022-09-15T23:09:01.816Z,2.72
2022-09-15T23:11:32.363Z,5.50
2022-09-15T23:14:00.140Z,4.28
2022-09-15T23:16:28.409Z,4.13
2022-09-15T23:18:55.803Z,7.88
2022-09-15T23:21:23.131Z,1.77
2022-09-15T23:23:52.760Z,5.68
2022-09-15T23:26:23.752Z,3.65
2022-09-15T23:28:51.668Z,4.40
2022-09-15T23:31:19.709Z,2.60
2022-09-15T23:33:47.687Z,2.55
2022-09-15T23:36:19.603Z,5.28
2022-09-15T23:38:48.454Z,3.17
2022-09-15T23:41:17.073Z,6.07
2022-09-15T23:43:45.158Z,4.45
2022-09-15T23:46:12.748Z,1.88
2022-09-15T23:48:40.346Z,5.05
2022-09-15T23:51:07.804Z,7.28
2022-09-15T23:53:35.367Z,4.10
2022-09-15T23:56:02.965Z,3.45
2022-09-15T23:58:30.254Z,4.13
